createdAt,value
2017-08-01T00:02:22.425Z,8.43
2017-08-01T00:04:48.355Z,7.60
2017-08-01T00:07:14.353Z,11.57
2017-08-01T00:09:40.289Z,9.10
2017-08-01T00:12:06.292Z,8.10
2017-08-01T00:14:32.229Z,8.03
2017-08-01T00:16:58.916Z,8.27
2017-08-01T00:19:24.891Z,10.10
2017-08-01T00:21:50.869Z,7.17
2017-08-01T00:27:08.108Z,7.43
2017-08-01T00:29:34.058Z,8.97
2017-08-01T00:31:59.991Z,7.57
2017-08-01T00:34:26.718Z,7.83
2017-08-01T00:36:53.426Z,8.97
2017-08-01T00:39:19.389Z,10.90
2017-08-01T00:41:45.367Z,14.33
2017-08-01T00:44:12.040Z,7.60
2017-08-01T00:46:38.009Z,8.67
2017-08-01T00:49:03.950Z,7.17
2017-08-01T00:51:29.973Z,8.40
2017-08-01T00:53:55.963Z,7.47
2017-08-01T00:56:21.944Z,8.00
2017-08-01T00:58:47.917Z,7.53
2017-08-01T01:01:13.862Z,7.67
2017-08-01T01:03:39.828Z,9.47
2017-08-01T01:06:05.809Z,9.30
2017-08-01T01:08:31.785Z,6.60
2017-08-01T01:10:57.720Z,8.00
2017-08-01T01:13:23.733Z,8.87
2017-08-01T01:15:49.677Z,7.63
2017-08-01T01:18:15.612Z,7.97
2017-08-01T01:20:41.576Z,7.77
2017-08-01T01:23:07.516Z,8.50
2017-08-01T01:25:33.476Z,7.70
2017-08-01T01:27:59.421Z,7.43
2017-08-01T01:30:26.145Z,7.50
2017-08-01T01:32:52.890Z,7.90
2017-08-01T01:35:19.560Z,8.33
2017-08-01T01:37:45.489Z,7.20
2017-08-01T01:40:11.473Z,7.47
2017-08-01T01:42:37.406Z,9.33
2017-08-01T01:45:03.341Z,7.90
2017-08-01T01:47:30.137Z,8.53
2017-08-01T01:49:56.081Z,8.23
2017-08-01T01:52:22.022Z,7.80
2017-08-01T01:54:47.976Z,8.43
2017-08-01T01:57:13.925Z,6.77
2017-08-01T01:59:39.877Z,7.93
2017-08-01T02:02:05.853Z,7.73
2017-08-01T02:04:31.792Z,8.10
2017-08-01T02:06:57.806Z,6.90
2017-08-01T02:09:23.765Z,7.60
2017-08-01T02:11:49.698Z,8.47
2017-08-01T02:14:15.678Z,7.57
2017-08-01T02:16:41.670Z,11.77
2017-08-01T02:19:07.612Z,7.50
2017-08-01T02:21:33.545Z,8.80
2017-08-01T02:23:59.502Z,7.27
2017-08-01T02:26:25.451Z,8.20
2017-08-01T02:28:51.417Z,8.27
2017-08-01T02:31:17.366Z,8.73
2017-08-01T02:33:43.333Z,7.70
2017-08-01T02:36:09.289Z,8.23
2017-08-01T02:38:35.276Z,10.30
2017-08-01T02:41:01.266Z,7.70
2017-08-01T02:43:27.210Z,9.27
2017-08-01T02:45:53.177Z,8.10
2017-08-01T02:48:19.126Z,8.00
2017-08-01T02:50:45.082Z,7.40
2017-08-01T02:53:11.029Z,8.73
2017-08-01T02:55:36.995Z,7.10
2017-08-01T02:58:03.677Z,11.50
2017-08-01T03:00:29.652Z,7.80
2017-08-01T03:02:55.604Z,8.27
2017-08-01T03:05:21.561Z,7.53
2017-08-01T03:07:47.525Z,8.83
2017-08-01T03:10:13.534Z,8.23
2017-08-01T03:12:39.493Z,11.80
2017-08-01T03:15:05.433Z,8.60
2017-08-01T03:17:31.389Z,9.37
2017-08-01T03:19:57.329Z,8.00
2017-08-01T03:22:23.293Z,7.90
2017-08-01T03:24:49.997Z,8.70
2017-08-01T03:27:15.962Z,10.37
2017-08-01T03:29:41.898Z,9.63
2017-08-01T03:32:07.866Z,9.23
2017-08-01T03:34:33.822Z,8.80
2017-08-01T03:36:59.778Z,9.37
2017-08-01T03:39:25.800Z,9.60
2017-08-01T03:41:51.770Z,9.10
2017-08-01T03:44:17.729Z,8.10
2017-08-01T03:46:43.666Z,10.10
2017-08-01T03:49:09.605Z,9.50
2017-08-01T03:51:36.329Z,10.03
2017-08-01T03:54:03.011Z,8.67
2017-08-01T03:56:28.953Z,8.80
2017-08-01T03:58:55.665Z,8.73
2017-08-01T04:01:21.636Z,9.10
2017-08-01T04:03:47.668Z,8.63
2017-08-01T04:06:13.629Z,10.43
2017-08-01T04:08:39.574Z,11.17
2017-08-01T04:11:05.542Z,9.93
2017-08-01T04:13:31.506Z,8.87
2017-08-01T04:15:57.461Z,11.77
2017-08-01T04:18:23.443Z,15.20
2017-08-01T04:20:49.390Z,13.20
2017-08-01T04:23:15.377Z,11.60
2017-08-01T04:25:41.321Z,14.27
2017-08-01T04:28:07.301Z,10.10
2017-08-01T04:30:33.253Z,11.20
2017-08-01T04:32:59.239Z,10.10
2017-08-01T04:35:25.198Z,10.63
2017-08-01T04:37:58.997Z,9.83
2017-08-01T04:40:25.699Z,9.87
2017-08-01T04:42:51.684Z,9.53
2017-08-01T04:45:17.689Z,10.60
2017-08-01T04:47:43.637Z,8.30
2017-08-01T04:50:09.603Z,9.33
2017-08-01T04:52:35.549Z,9.80
2017-08-01T04:55:01.505Z,10.20
2017-08-01T04:57:27.458Z,9.00
2017-08-01T04:59:53.430Z,10.30
2017-08-01T05:02:19.381Z,10.10
2017-08-01T05:04:45.341Z,13.53
2017-08-01T05:07:11.286Z,12.43
2017-08-01T05:09:37.249Z,11.27
2017-08-01T05:12:03.198Z,12.27
2017-08-01T05:14:29.149Z,12.50
2017-08-01T05:16:55.117Z,13.17
2017-08-01T05:19:21.074Z,13.07
2017-08-01T05:21:47.038Z,13.17
2017-08-01T05:24:12.981Z,13.43
2017-08-01T05:26:38.946Z,11.10
2017-08-01T05:29:04.953Z,11.37
2017-08-01T05:31:30.945Z,15.03
2017-08-01T05:33:56.892Z,11.33
2017-08-01T05:36:23.590Z,11.37
2017-08-01T05:38:49.553Z,10.87
2017-08-01T05:41:15.514Z,11.40
2017-08-01T05:43:41.490Z,11.03
2017-08-01T05:46:07.462Z,9.93
2017-08-01T05:48:33.425Z,9.30
2017-08-01T05:50:59.374Z,10.80
2017-08-01T05:53:26.085Z,11.00
2017-08-01T05:55:52.067Z,10.30
2017-08-01T05:58:18.008Z,8.80
2017-08-01T06:00:43.989Z,9.37
2017-08-01T06:03:09.970Z,8.27
2017-08-01T06:05:35.917Z,8.83
2017-08-01T06:08:01.897Z,8.37
2017-08-01T06:10:27.925Z,8.50
2017-08-01T06:12:53.885Z,12.30
2017-08-01T06:15:19.833Z,7.63
2017-08-01T06:17:45.802Z,10.23
2017-08-01T06:20:11.753Z,6.50
2017-08-01T06:22:37.709Z,6.10
2017-08-01T06:25:04.393Z,6.63
2017-08-01T06:27:30.376Z,8.57
2017-08-01T06:29:56.346Z,7.20
2017-08-01T06:32:23.051Z,6.87
2017-08-01T06:34:49.021Z,8.30
2017-08-01T06:37:14.965Z,7.47
2017-08-01T06:39:40.958Z,7.20
2017-08-01T06:42:06.969Z,7.20
2017-08-01T06:44:32.918Z,6.83
2017-08-01T06:46:58.877Z,6.30
2017-08-01T06:49:24.859Z,7.33
2017-08-01T06:51:50.886Z,7.80
2017-08-01T06:54:16.861Z,7.37
2017-08-01T06:56:47.833Z,9.30
2017-08-01T06:59:13.812Z,6.90
2017-08-01T07:01:39.773Z,7.63
2017-08-01T07:04:05.742Z,8.10
2017-08-01T07:06:31.705Z,8.00
2017-08-01T07:08:58.415Z,9.27
2017-08-01T07:11:24.362Z,9.90
2017-08-01T07:13:50.654Z,7.60
2017-08-01T07:16:17.342Z,7.30
2017-08-01T07:18:43.314Z,8.30
2017-08-01T07:21:09.249Z,8.63
2017-08-01T07:23:35.218Z,7.50
2017-08-01T07:26:01.166Z,8.43
2017-08-01T07:28:27.145Z,8.33
2017-08-01T07:30:53.135Z,8.30
2017-08-01T07:33:19.078Z,9.80
2017-08-01T07:35:45.069Z,8.60
2017-08-01T07:38:11.015Z,10.37
2017-08-01T07:40:36.957Z,9.27
2017-08-01T07:43:03.687Z,9.20
2017-08-01T07:45:30.378Z,9.80
2017-08-01T07:47:56.360Z,9.50
2017-08-01T07:50:22.314Z,8.43
2017-08-01T07:52:49.029Z,8.73
2017-08-01T07:55:15.010Z,8.57
2017-08-01T07:57:40.957Z,9.40
2017-08-01T08:00:07.650Z,10.40
2017-08-01T08:02:33.630Z,9.10
2017-08-01T08:04:59.573Z,9.10
2017-08-01T08:07:25.550Z,9.40
2017-08-01T08:09:51.519Z,8.40
2017-08-01T08:12:18.226Z,7.53
2017-08-01T08:14:44.178Z,8.93
2017-08-01T08:17:10.122Z,8.20
2017-08-01T08:19:36.097Z,8.37
2017-08-01T08:22:02.042Z,8.37
2017-08-01T08:24:28.017Z,8.43
2017-08-01T08:26:53.976Z,8.13
2017-08-01T08:29:19.930Z,9.03
2017-08-01T08:31:45.873Z,8.90
2017-08-01T08:34:11.843Z,10.83
2017-08-01T08:36:37.794Z,9.80
2017-08-01T08:39:03.766Z,11.30
2017-08-01T08:41:29.718Z,11.07
2017-08-01T08:43:55.706Z,8.97
2017-08-01T08:46:21.659Z,8.45
2017-08-01T08:48:48.369Z,8.87
2017-08-01T08:51:14.322Z,9.67
2017-08-01T08:53:40.294Z,9.83
2017-08-01T08:56:06.262Z,10.37
2017-08-01T08:58:32.206Z,9.43
2017-08-01T09:00:58.203Z,9.60
2017-08-01T09:03:24.149Z,8.57
2017-08-01T09:05:50.093Z,8.40
2017-08-01T09:08:16.065Z,8.07
2017-08-01T09:10:42.001Z,8.03
2017-08-01T09:13:07.962Z,9.40
2017-08-01T09:15:34.682Z,9.10
2017-08-01T09:18:00.642Z,10.20
2017-08-01T09:20:26.585Z,10.77
2017-08-01T09:22:52.617Z,9.30
2017-08-01T09:25:19.298Z,9.80
2017-08-01T09:27:45.263Z,9.97
2017-08-01T09:30:11.210Z,8.30
2017-08-01T09:32:37.177Z,10.00
2017-08-01T09:35:03.126Z,9.93
2017-08-01T09:37:29.097Z,8.77
2017-08-01T09:39:55.051Z,9.27
2017-08-01T09:42:21.046Z,8.10
2017-08-01T09:44:47.038Z,8.50
2017-08-01T09:47:13.041Z,9.07
2017-08-01T09:49:38.985Z,13.27
2017-08-01T09:52:04.934Z,9.33
2017-08-01T09:54:31.642Z,8.73
2017-08-01T09:56:57.593Z,9.67
2017-08-01T09:59:23.569Z,9.57
2017-08-01T10:01:49.538Z,13.07
2017-08-01T10:04:15.505Z,9.47
2017-08-01T10:06:41.486Z,8.50
2017-08-01T10:09:07.453Z,7.90
2017-08-01T10:11:33.397Z,9.40
2017-08-01T10:14:00.845Z,9.63
2017-08-01T10:16:26.789Z,9.10
2017-08-01T10:18:52.777Z,8.90
2017-08-01T10:21:19.466Z,10.57
2017-08-01T10:23:45.426Z,10.00
2017-08-01T10:26:11.378Z,10.60
2017-08-01T10:28:37.366Z,9.30
2017-08-01T10:31:03.305Z,9.70
2017-08-01T10:33:29.253Z,10.07
2017-08-01T10:35:55.246Z,12.63
2017-08-01T10:38:21.202Z,10.50
2017-08-01T10:40:47.189Z,10.87
2017-08-01T10:43:13.152Z,11.43
2017-08-01T10:45:39.133Z,10.63
2017-08-01T10:48:05.133Z,13.27
2017-08-01T10:50:31.113Z,10.80
2017-08-01T10:52:57.109Z,11.07
2017-08-01T10:55:23.093Z,10.87
2017-08-01T10:57:49.057Z,10.03
2017-08-01T11:00:15.002Z,11.10
2017-08-01T11:02:40.978Z,11.50
2017-08-01T11:05:06.930Z,10.30
2017-08-01T11:07:32.895Z,10.63
2017-08-01T11:09:58.858Z,10.30
2017-08-01T11:12:24.811Z,11.20
2017-08-01T11:14:50.830Z,11.90
2017-08-01T11:17:16.774Z,10.73
2017-08-01T11:19:42.722Z,10.50
2017-08-01T11:22:08.681Z,9.90
2017-08-01T11:24:34.634Z,11.97
2017-08-01T11:27:00.609Z,11.07
2017-08-01T11:29:26.557Z,10.47
2017-08-01T11:31:52.564Z,10.47
2017-08-01T11:34:18.509Z,11.23
2017-08-01T11:36:44.454Z,10.40
2017-08-01T11:39:11.161Z,10.83
2017-08-01T11:41:37.213Z,11.53
2017-08-01T11:44:03.174Z,11.03
2017-08-01T11:46:29.138Z,10.33
2017-08-01T11:48:55.095Z,10.53
2017-08-01T11:51:21.066Z,10.07
2017-08-01T11:53:47.009Z,11.70
2017-08-01T11:56:13.077Z,11.40
2017-08-01T11:58:39.081Z,10.23
2017-08-01T12:01:05.030Z,10.70
2017-08-01T12:03:31.015Z,9.97
2017-08-01T12:05:56.975Z,11.70
2017-08-01T12:08:23.718Z,9.73
2017-08-01T12:10:49.678Z,9.17
2017-08-01T12:13:15.621Z,9.63
2017-08-01T12:15:41.581Z,8.27
2017-08-01T12:18:07.518Z,8.97
2017-08-01T12:20:33.481Z,8.27
2017-08-01T12:22:59.433Z,9.20
2017-08-01T12:25:25.397Z,9.83
2017-08-01T12:27:51.355Z,8.83
2017-08-01T12:30:18.058Z,8.60
2017-08-01T12:32:44.029Z,9.00
2017-08-01T12:35:09.974Z,8.57
2017-08-01T12:37:35.935Z,8.23
2017-08-01T12:40:01.873Z,7.60
2017-08-01T12:42:27.861Z,8.93
2017-08-01T12:44:53.925Z,9.53
2017-08-01T12:47:19.876Z,8.80
2017-08-01T12:49:45.874Z,9.33
2017-08-01T12:52:11.830Z,9.23
2017-08-01T12:54:37.777Z,10.53
2017-08-01T12:57:05.542Z,10.97
2017-08-01T12:59:31.490Z,11.70
2017-08-01T13:01:57.453Z,12.57
2017-08-01T13:04:23.414Z,13.30
2017-08-01T13:06:49.378Z,13.40
2017-08-01T13:09:15.321Z,13.97
2017-08-01T13:11:41.316Z,13.33
2017-08-01T13:14:07.261Z,13.40
2017-08-01T13:16:33.230Z,14.60
2017-08-01T13:18:59.177Z,14.77
2017-08-01T13:21:25.149Z,15.27
2017-08-01T13:23:51.118Z,15.00
2017-08-01T13:26:17.129Z,15.50
2017-08-01T13:28:43.849Z,15.50
2017-08-01T13:31:10.538Z,15.63
2017-08-01T13:33:36.506Z,16.67
2017-08-01T13:36:02.478Z,16.12
2017-08-01T13:38:28.449Z,16.02
2017-08-01T13:40:54.403Z,16.37
2017-08-01T13:43:21.151Z,15.55
2017-08-01T13:45:47.096Z,15.70
2017-08-01T13:48:13.058Z,15.18
2017-08-01T13:50:39.013Z,16.70
2017-08-01T13:53:04.990Z,16.30
2017-08-01T13:55:30.939Z,15.80
2017-08-01T13:57:56.901Z,15.03
2017-08-01T14:00:22.861Z,16.83
2017-08-01T14:02:48.814Z,14.77
2017-08-01T14:05:14.798Z,14.80
2017-08-01T14:07:41.525Z,16.10
2017-08-01T14:10:08.266Z,14.73
2017-08-01T14:12:34.213Z,13.33
2017-08-01T14:15:00.197Z,13.90
2017-08-01T14:17:26.194Z,13.70
2017-08-01T14:19:52.151Z,11.73
2017-08-01T14:22:18.102Z,13.60
2017-08-01T14:24:44.810Z,12.00
2017-08-01T14:27:10.753Z,13.00
2017-08-01T14:29:36.725Z,11.10
2017-08-01T14:32:02.670Z,11.20
2017-08-01T14:34:28.692Z,10.57
2017-08-01T14:36:54.677Z,9.90
2017-08-01T14:39:20.646Z,11.07
2017-08-01T14:41:47.396Z,11.23
2017-08-01T14:44:14.101Z,10.43
2017-08-01T14:46:40.054Z,11.13
2017-08-01T14:49:06.022Z,9.77
2017-08-01T14:51:31.990Z,11.80
2017-08-01T14:53:57.974Z,9.77
2017-08-01T14:56:23.917Z,10.40
2017-08-01T14:58:49.898Z,10.87
2017-08-01T15:01:15.850Z,9.90
2017-08-01T15:03:41.818Z,10.93
2017-08-01T15:06:07.794Z,10.47
2017-08-01T15:08:34.573Z,10.43
2017-08-01T15:11:00.559Z,10.03
2017-08-01T15:13:26.595Z,10.07
2017-08-01T15:15:52.554Z,9.10
2017-08-01T15:18:19.258Z,11.03
2017-08-01T15:20:45.212Z,10.27
2017-08-01T15:23:11.237Z,10.47
2017-08-01T15:25:37.185Z,10.13
2017-08-01T15:28:03.152Z,9.93
2017-08-01T15:30:29.093Z,10.90
2017-08-01T15:32:55.072Z,9.13
2017-08-01T15:35:21.016Z,9.70
2017-08-01T15:37:47.014Z,9.67
2017-08-01T15:40:12.970Z,11.97
2017-08-01T15:42:38.918Z,8.97
2017-08-01T15:45:04.906Z,10.20
2017-08-01T15:47:30.892Z,8.60
2017-08-01T15:49:56.861Z,8.07
2017-08-01T15:52:22.814Z,9.03
2017-08-01T15:54:48.782Z,9.20
2017-08-01T15:57:14.806Z,7.53
2017-08-01T15:59:41.489Z,7.70
2017-08-01T16:02:07.434Z,6.37
2017-08-01T16:04:34.181Z,7.87
2017-08-01T16:07:00.138Z,9.20
2017-08-01T16:09:26.102Z,6.77
2017-08-01T16:11:52.113Z,9.07
2017-08-01T16:14:18.077Z,6.90
2017-08-01T16:16:44.042Z,8.77
2017-08-01T16:19:09.991Z,7.57
2017-08-01T16:21:35.960Z,6.40
2017-08-01T16:24:01.915Z,9.93
2017-08-01T16:26:27.866Z,7.63
2017-08-01T16:28:53.857Z,7.60
2017-08-01T16:31:20.598Z,8.03
2017-08-01T16:33:46.598Z,6.37
2017-08-01T16:36:12.537Z,7.60
2017-08-01T16:38:38.479Z,7.10
2017-08-01T16:41:04.442Z,7.00
2017-08-01T16:43:30.393Z,6.80
2017-08-01T16:45:56.369Z,8.00
2017-08-01T16:48:22.309Z,8.83
2017-08-01T16:50:48.305Z,7.30
2017-08-01T16:53:14.250Z,7.13
2017-08-01T16:55:40.950Z,7.03
2017-08-01T16:58:06.901Z,6.90
2017-08-01T17:00:32.870Z,7.30
2017-08-01T17:02:58.809Z,7.53
2017-08-01T17:05:24.774Z,7.93
2017-08-01T17:07:50.803Z,8.73
2017-08-01T17:10:16.746Z,7.80
2017-08-01T17:12:42.692Z,11.40
2017-08-01T17:15:08.650Z,7.57
2017-08-01T17:17:34.602Z,7.20
2017-08-01T17:20:00.567Z,7.00
2017-08-01T17:22:26.516Z,6.77
2017-08-01T17:24:52.506Z,6.80
2017-08-01T17:27:18.449Z,7.53
2017-08-01T17:29:44.393Z,9.10
2017-08-01T17:32:11.089Z,7.97
2017-08-01T17:34:37.030Z,8.57
2017-08-01T17:37:03.742Z,7.83
2017-08-01T17:39:29.713Z,8.43
2017-08-01T17:41:55.672Z,7.37
2017-08-01T17:44:21.618Z,8.80
2017-08-01T17:46:48.503Z,7.23
2017-08-01T17:49:14.546Z,8.87
2017-08-01T17:51:40.547Z,6.90
2017-08-01T17:54:07.149Z,7.43
2017-08-01T17:56:33.117Z,12.70
2017-08-01T17:58:59.093Z,6.73
2017-08-01T18:01:25.802Z,7.60
2017-08-01T18:03:51.753Z,8.93
2017-08-01T18:06:17.906Z,7.10
2017-08-01T18:08:43.858Z,6.87
2017-08-01T18:11:10.587Z,7.23
2017-08-01T18:13:36.566Z,7.27
2017-08-01T18:16:02.522Z,9.40
2017-08-01T18:18:28.488Z,8.90
2017-08-01T18:20:54.462Z,7.13
2017-08-01T18:23:20.425Z,8.03
2017-08-01T18:25:47.122Z,7.60
2017-08-01T18:28:13.139Z,8.27
2017-08-01T18:30:39.088Z,7.47
2017-08-01T18:33:05.061Z,6.20
2017-08-01T18:35:31.113Z,5.60
2017-08-01T18:37:57.098Z,5.77
2017-08-01T18:40:23.089Z,5.60
2017-08-01T18:42:49.138Z,7.90
2017-08-01T18:45:15.095Z,6.53
2017-08-01T18:47:41.805Z,9.00
2017-08-01T18:50:07.782Z,7.07
2017-08-01T18:52:33.770Z,6.80
2017-08-01T18:54:59.742Z,7.20
2017-08-01T18:57:26.438Z,8.23
2017-08-01T18:59:52.426Z,8.07
2017-08-01T19:02:18.366Z,7.07
2017-08-01T19:04:44.318Z,7.70
2017-08-01T19:07:10.293Z,6.80
2017-08-01T19:09:36.993Z,7.67
2017-08-01T19:12:02.978Z,9.57
2017-08-01T19:14:28.981Z,10.03
2017-08-01T19:16:55.050Z,10.17
2017-08-01T19:19:21.801Z,9.63
2017-08-01T19:21:47.742Z,8.80
2017-08-01T19:24:13.778Z,8.60
2017-08-01T19:26:39.733Z,8.60
2017-08-01T19:29:05.726Z,8.00
2017-08-01T19:31:31.739Z,9.43
2017-08-01T19:33:57.686Z,10.00
2017-08-01T19:36:24.913Z,11.30
2017-08-01T19:38:50.857Z,9.47
2017-08-01T19:41:16.849Z,11.10
2017-08-01T19:43:42.845Z,9.37
2017-08-01T19:46:08.794Z,10.53
2017-08-01T19:48:34.814Z,10.87
2017-08-01T19:51:00.888Z,8.03
2017-08-01T19:53:26.838Z,11.13
2017-08-01T19:55:52.842Z,9.77
2017-08-01T19:58:18.790Z,9.20
2017-08-01T20:00:44.777Z,8.90
2017-08-01T20:03:10.805Z,10.27
2017-08-01T20:05:36.757Z,9.43
2017-08-01T20:08:02.818Z,8.70
2017-08-01T20:10:28.770Z,9.30
2017-08-01T20:12:55.483Z,9.00
2017-08-01T20:15:22.217Z,8.50
2017-08-01T20:17:48.910Z,9.57
2017-08-01T20:20:14.938Z,10.13
2017-08-01T20:22:40.893Z,10.20
2017-08-01T20:25:06.834Z,10.03
2017-08-01T20:27:33.615Z,9.47
2017-08-01T20:29:59.578Z,9.00
2017-08-01T20:32:25.586Z,10.10
2017-08-01T20:34:51.573Z,10.63
2017-08-01T20:37:17.513Z,10.27
2017-08-01T20:39:43.459Z,10.37
2017-08-01T20:42:09.478Z,9.57
2017-08-01T20:44:35.452Z,10.43
2017-08-01T20:47:01.429Z,11.30
2017-08-01T20:49:28.204Z,10.83
2017-08-01T20:51:54.158Z,10.50
2017-08-01T20:54:20.850Z,10.73
2017-08-01T20:56:46.826Z,14.23
2017-08-01T20:59:12.810Z,13.57
2017-08-01T21:01:38.832Z,10.83
2017-08-01T21:04:05.513Z,10.80
2017-08-01T21:06:31.462Z,10.37
2017-08-01T21:08:57.435Z,10.37
2017-08-01T21:11:23.426Z,13.37
2017-08-01T21:13:49.402Z,11.53
2017-08-01T21:16:16.098Z,10.73
2017-08-01T21:18:42.078Z,9.80
2017-08-01T21:21:08.025Z,9.40
2017-08-01T21:23:33.990Z,8.40
2017-08-01T21:25:59.930Z,14.23
2017-08-01T21:28:25.947Z,8.37
2017-08-01T21:30:52.028Z,7.30
2017-08-01T21:33:17.969Z,10.40
2017-08-01T21:35:43.931Z,11.40
2017-08-01T21:38:09.921Z,9.87
2017-08-01T21:40:35.865Z,10.27
2017-08-01T21:43:01.813Z,10.10
2017-08-01T21:45:28.527Z,9.40
2017-08-01T21:47:54.465Z,11.50
2017-08-01T21:50:20.510Z,17.83
2017-08-01T21:52:46.462Z,9.93
2017-08-01T21:55:13.142Z,9.57
2017-08-01T21:57:39.122Z,14.17
2017-08-01T22:00:05.119Z,11.60
2017-08-01T22:02:31.076Z,10.53
2017-08-01T22:04:57.770Z,11.27
2017-08-01T22:07:30.818Z,11.27
2017-08-01T22:09:56.778Z,11.13
2017-08-01T22:12:30.404Z,12.07
2017-08-01T22:14:56.386Z,10.93
2017-08-01T22:17:22.645Z,10.90
2017-08-01T22:19:48.585Z,10.67
2017-08-01T22:22:14.539Z,11.23
2017-08-01T22:24:40.519Z,11.30
2017-08-01T22:27:07.240Z,11.97
2017-08-01T22:29:33.958Z,11.13
2017-08-01T22:32:00.658Z,11.50
2017-08-01T22:34:26.613Z,12.10
2017-08-01T22:36:52.581Z,10.60
2017-08-01T22:39:18.533Z,9.77
2017-08-01T22:41:44.510Z,10.33
2017-08-01T22:44:10.952Z,10.87
2017-08-01T22:46:36.961Z,11.13
2017-08-01T22:49:02.957Z,11.10
2017-08-01T22:51:29.686Z,9.00
2017-08-01T22:53:55.682Z,10.83
2017-08-01T22:56:21.630Z,9.30
2017-08-01T22:58:47.567Z,10.50
2017-08-01T23:01:13.545Z,11.60
2017-08-01T23:03:39.502Z,9.67
2017-08-01T23:06:05.482Z,11.20
2017-08-01T23:08:31.417Z,11.83
2017-08-01T23:10:57.353Z,10.30
2017-08-01T23:13:23.334Z,9.70
2017-08-01T23:15:49.278Z,9.77
2017-08-01T23:18:16.005Z,9.97
2017-08-01T23:20:42.694Z,10.47
2017-08-01T23:23:08.650Z,10.53
2017-08-01T23:25:34.613Z,11.27
2017-08-01T23:28:00.553Z,10.47
2017-08-01T23:30:27.271Z,11.27
2017-08-01T23:32:53.998Z,10.57
2017-08-01T23:35:20.678Z,11.20
2017-08-01T23:37:46.658Z,10.00
2017-08-01T23:40:12.597Z,11.63
2017-08-01T23:42:38.574Z,11.17
2017-08-01T23:45:04.531Z,10.53
2017-08-01T23:47:30.502Z,10.73
2017-08-01T23:49:56.513Z,10.93
2017-08-01T23:52:22.482Z,11.60
2017-08-01T23:54:49.237Z,10.70
2017-08-01T23:57:15.241Z,11.70
2017-08-01T23:59:41.221Z,9.20
